createdAt,value
2017-11-14T01:51:29.144Z,9.70
2017-11-14T01:54:16.285Z,11.13
2017-11-14T01:56:56.206Z,8.83
2017-11-14T02:44:56.296Z,20.70
2017-11-14T02:47:27.852Z,26.87
2017-11-14T03:43:39.989Z,11.50
2017-11-14T03:49:57.703Z,12.60
2017-11-14T04:02:00.403Z,13.50
2017-11-14T05:43:19.895Z,11.63
2017-11-14T05:48:49.219Z,13.37
2017-11-14T05:51:23.885Z,10.70
2017-11-14T05:53:53.321Z,11.80
2017-11-14T06:06:11.957Z,10.00
2017-11-14T06:08:52.133Z,11.70
2017-11-14T06:11:25.863Z,12.53
2017-11-14T06:16:58.515Z,11.80
2017-11-14T06:19:28.737Z,8.23
2017-11-14T06:21:57.869Z,8.43
2017-11-14T06:24:31.784Z,7.80
2017-11-14T06:27:29.885Z,8.60
2017-11-14T06:33:36.923Z,8.50
2017-11-14T08:43:09.025Z,9.80
2017-11-14T08:45:37.531Z,13.67
2017-11-14T08:57:05.377Z,13.47
2017-11-14T08:59:40.005Z,12.60
2017-11-14T09:02:18.376Z,12.37
2017-11-14T09:07:58.830Z,12.37
2017-11-14T09:10:34.867Z,13.37
2017-11-14T09:13:13.740Z,10.40
2017-11-14T09:16:06.356Z,14.03
2017-11-14T09:36:04.447Z,11.43
2017-11-14T09:41:26.582Z,11.87
2017-11-14T09:44:08.885Z,11.33
2017-11-14T18:00:25.557Z,17.30
2017-11-14T18:02:54.581Z,17.37
2017-11-14T18:05:25.852Z,17.67
2017-11-14T18:07:54.187Z,18.13
2017-11-14T18:10:22.623Z,18.60
2017-11-14T18:12:51.103Z,17.90
2017-11-14T18:15:19.369Z,17.40
2017-11-14T18:17:48.117Z,18.70
2017-11-14T18:20:16.396Z,16.43
2017-11-14T18:22:45.317Z,18.37
2017-11-14T18:25:13.708Z,24.80
2017-11-14T18:27:42.212Z,27.53
2017-11-14T18:30:10.500Z,28.30
2017-11-14T18:32:38.930Z,23.87
2017-11-14T18:35:07.193Z,28.93
2017-11-14T18:37:35.507Z,33.63
2017-11-14T18:40:03.802Z,22.53
2017-11-14T18:42:32.945Z,22.97
2017-11-14T18:45:01.360Z,26.70
2017-11-14T18:47:29.692Z,25.67
2017-11-14T18:49:58.001Z,27.03
2017-11-14T18:52:26.654Z,29.50
2017-11-14T18:54:55.842Z,30.10
2017-11-14T18:57:24.292Z,25.50
2017-11-14T18:59:53.520Z,29.50
2017-11-14T19:02:21.815Z,24.07
2017-11-14T19:04:50.071Z,22.70
2017-11-14T19:07:18.476Z,32.03
2017-11-14T19:09:46.812Z,24.60
2017-11-14T19:12:15.082Z,34.03
2017-11-14T19:14:44.321Z,34.30
2017-11-14T19:17:12.621Z,33.70
2017-11-14T19:19:40.908Z,28.77
2017-11-14T19:22:09.211Z,30.80
2017-11-14T19:24:38.230Z,28.97
2017-11-14T19:27:07.549Z,26.03
2017-11-14T19:29:36.459Z,28.00
2017-11-14T19:32:05.847Z,28.60
2017-11-14T19:34:35.633Z,27.70
2017-11-14T19:37:04.009Z,26.60
2017-11-14T19:39:32.325Z,28.57
2017-11-14T19:42:01.354Z,27.70
2017-11-14T19:44:32.344Z,27.40
2017-11-14T19:47:00.814Z,27.70
2017-11-14T19:49:29.566Z,29.47
2017-11-14T19:51:58.684Z,27.80
2017-11-14T19:54:26.996Z,23.70
2017-11-14T19:56:55.531Z,26.30
2017-11-14T19:59:24.094Z,24.20
2017-11-14T20:01:53.144Z,28.07
2017-11-14T20:04:22.349Z,25.60
2017-11-14T20:06:50.891Z,24.53
2017-11-14T20:09:19.185Z,26.97
2017-11-14T20:11:47.489Z,24.50
2017-11-14T20:14:15.814Z,30.80
2017-11-14T20:16:46.476Z,23.33
2017-11-14T20:19:15.466Z,24.90
2017-11-14T20:21:44.127Z,24.23
2017-11-14T20:24:12.435Z,26.53
2017-11-14T20:26:40.755Z,23.17
2017-11-14T20:29:09.025Z,22.70
2017-11-14T20:31:38.141Z,23.30
2017-11-14T20:34:06.496Z,24.90
2017-11-14T20:36:34.770Z,24.40
2017-11-14T20:39:02.998Z,23.10
2017-11-14T20:41:31.350Z,24.07
2017-11-14T20:43:59.650Z,31.80
2017-11-14T20:46:28.594Z,24.10
2017-11-14T20:49:04.030Z,23.23
2017-11-14T20:51:32.496Z,24.47
2017-11-14T20:54:00.869Z,22.00
2017-11-14T20:56:29.157Z,22.20
2017-11-14T20:58:57.509Z,22.60
2017-11-14T21:01:25.834Z,22.03
2017-11-14T21:03:54.907Z,28.50
2017-11-14T21:06:23.179Z,25.10
2017-11-14T21:08:51.461Z,28.97
2017-11-14T21:11:20.471Z,22.40
2017-11-14T21:13:49.586Z,20.97
2017-11-14T21:16:18.598Z,23.37
2017-11-14T21:18:46.869Z,20.30
2017-11-14T21:21:15.205Z,24.83
2017-11-14T21:23:43.459Z,19.67
2017-11-14T21:26:11.683Z,21.73
2017-11-14T21:28:40.030Z,20.60
2017-11-14T21:31:08.289Z,19.87
2017-11-14T21:33:37.505Z,24.00
2017-11-14T21:36:05.782Z,26.03
2017-11-14T21:38:34.058Z,24.60
2017-11-14T21:41:02.512Z,22.63
2017-11-14T21:43:30.925Z,19.60
2017-11-14T21:46:00.023Z,20.37
2017-11-14T21:48:29.111Z,23.73
2017-11-14T21:50:57.374Z,18.27
2017-11-14T21:53:25.780Z,22.90
2017-11-14T21:55:54.801Z,17.87
2017-11-14T21:58:23.056Z,18.50
2017-11-14T22:00:51.349Z,19.53
2017-11-14T22:03:19.640Z,20.13
2017-11-14T22:05:47.931Z,19.90
2017-11-14T22:08:16.372Z,20.50
2017-11-14T22:10:44.715Z,20.00
2017-11-14T22:13:13.809Z,16.50
2017-11-14T22:15:42.274Z,23.40
2017-11-14T22:18:10.561Z,23.90
2017-11-14T22:20:38.900Z,17.87
2017-11-14T22:23:07.203Z,20.80
2017-11-14T22:25:35.481Z,15.57
2017-11-14T22:28:03.761Z,20.77
2017-11-14T22:30:32.071Z,19.10
2017-11-14T22:33:00.344Z,16.30
2017-11-14T22:35:29.362Z,20.53
2017-11-14T22:37:57.658Z,18.20
2017-11-14T22:40:25.918Z,18.30
2017-11-14T22:42:54.220Z,17.43
2017-11-14T22:45:22.521Z,16.63
2017-11-14T22:47:50.815Z,18.67
2017-11-14T22:50:19.851Z,20.57
2017-11-14T22:52:48.120Z,17.10
2017-11-14T22:55:16.429Z,15.73
2017-11-14T22:57:44.712Z,17.67
2017-11-14T23:13:47.193Z,17.00
2017-11-14T23:16:16.295Z,23.07
2017-11-14T23:18:45.298Z,16.87
2017-11-14T23:21:13.566Z,18.47
2017-11-14T23:23:41.848Z,19.57
2017-11-14T23:26:10.107Z,21.43
2017-11-14T23:28:40.222Z,24.73
2017-11-14T23:31:09.259Z,18.60
2017-11-14T23:33:37.601Z,19.10
2017-11-14T23:36:06.666Z,22.70
2017-11-14T23:38:34.924Z,22.47
2017-11-14T23:41:03.199Z,23.10
2017-11-14T23:43:31.489Z,24.33
2017-11-14T23:45:59.794Z,23.10
2017-11-14T23:48:28.878Z,21.27
2017-11-14T23:50:57.957Z,23.03
2017-11-14T23:53:26.255Z,20.70
2017-11-14T23:55:55.338Z,23.23
2017-11-14T23:58:23.697Z,20.63
